Time;durP1;ratioP1;P1;durP2;ratioP2;P2;SDS_P1;SDS_P2;PMS_P1;PMS_P2;Temp;Humidity;BMP_temperature;BMP_pressure;BME280_temperature;BME280_humidity;BME280_pressure;Samples;Min_cycle;Max_cycle;Signal;HPM_P1;HPM_P2
2023/03/11 00:01:11;;;;;;;12.13;6.63;;;;;;;;;;5064197;28;20456;-54
2023/03/11 00:03:36;;;;;;;13.10;7.05;;;;;;;;;;5064782;28;20419;-52
2023/03/11 00:06:01;;;;;;;11.77;6.38;;;;;;;;;;5064410;28;20378;-52
2023/03/11 00:08:27;;;;;;;11.85;6.20;;;;;;;;;;5064640;28;20021;-54
2023/03/11 00:10:54;;;;;;;8.50;5.72;;;;;;;;;;5064504;28;20035;-52
2023/03/11 00:13:19;;;;;;;10.65;5.97;;;;;;;;;;5064281;28;20456;-53
2023/03/11 00:15:46;;;;;;;8.25;4.57;;;;;;;;;;5064359;28;20021;-55
2023/03/11 00:18:11;;;;;;;8.15;4.88;;;;;;;;;;5064428;28;20020;-51
2023/03/11 00:20:38;;;;;;;10.32;4.78;;;;;;;;;;5082475;28;20491;-50
2023/03/11 00:23:04;;;;;;;6.40;3.92;;;;;;;;;;5068294;28;20082;-53
2023/03/11 00:25:31;;;;;;;6.88;3.92;;;;;;;;;;5068220;28;20082;-52
2023/03/11 00:27:56;;;;;;;5.45;2.95;;;;;;;;;;5068170;28;20016;-55
2023/03/11 00:30:22;;;;;;;3.97;2.60;;;;;;;;;;5069855;28;20024;-53
2023/03/11 00:32:48;;;;;;;4.28;2.78;;;;;;;;;;5068190;28;20025;-52
2023/03/11 00:35:15;;;;;;;4.18;2.47;;;;;;;;;;5082282;28;20028;-53
2023/03/11 00:37:41;;;;;;;2.28;1.75;;;;;;;;;;5081909;28;20036;-48
2023/03/11 00:40:07;;;;;;;5.20;2.13;;;;;;;;;;5067900;28;20446;-50
2023/03/11 00:42:33;;;;;;;4.03;1.73;;;;;;;;;;5067945;28;20017;-52
2023/03/11 00:44:58;;;;;;;6.13;1.85;;;;;;;;;;5067536;28;20389;-51
2023/03/11 00:47:23;;;;;;;2.33;1.67;;;;;;;;;;5099341;28;20045;-53
2023/03/11 00:49:49;;;;;;;4.45;1.38;;;;;;;;;;5067729;28;20029;-53
2023/03/11 00:52:14;;;;;;;2.70;1.20;;;;;;;;;;5068073;28;20432;-51
2023/03/11 00:54:39;;;;;;;3.97;1.58;;;;;;;;;;5067983;28;20104;-52
2023/03/11 00:57:04;;;;;;;4.32;1.35;;;;;;;;;;5067524;28;20324;-51
2023/03/11 00:59:30;;;;;;;1.50;1.10;;;;;;;;;;5067490;28;20112;-53
2023/03/11 01:01:55;;;;;;;1.52;1.17;;;;;;;;;;5067466;28;20036;-48
2023/03/11 01:04:20;;;;;;;1.10;1.00;;;;;;;;;;5067195;28;20025;-51
2023/03/11 01:06:45;;;;;;;1.60;1.20;;;;;;;;;;5064941;28;20036;-49
2023/03/11 01:09:11;;;;;;;2.30;1.08;;;;;;;;;;5067660;28;20396;-51
2023/03/11 01:11:36;;;;;;;1.20;1.10;;;;;;;;;;5067425;28;20028;-50
2023/03/11 01:14:03;;;;;;;0.73;0.73;;;;;;;;;;5067378;28;20025;-49
2023/03/11 01:16:28;;;;;;;1.88;1.13;;;;;;;;;;5067434;28;20020;-51
2023/03/11 01:18:53;;;;;;;4.95;1.30;;;;;;;;;;5067147;28;20025;-53
2023/03/11 01:21:19;;;;;;;0.95;0.85;;;;;;;;;;5067147;28;20411;-53
2023/03/11 01:23:44;;;;;;;1.00;0.77;;;;;;;;;;5067684;28;20116;-50
2023/03/11 01:26:09;;;;;;;0.77;0.75;;;;;;;;;;5066972;28;20102;-50
2023/03/11 01:28:35;;;;;;;1.17;0.82;;;;;;;;;;5067220;28;20024;-52
2023/03/11 01:31:00;;;;;;;1.45;1.00;;;;;;;;;;5066019;28;20063;-49
2023/03/11 01:33:25;;;;;;;1.10;0.75;;;;;;;;;;5066945;28;20028;-50
2023/03/11 01:35:51;;;;;;;1.60;0.98;;;;;;;;;;5067162;28;20074;-55
2023/03/11 01:38:16;;;;;;;1.17;0.73;;;;;;;;;;5067126;28;20024;-51
2023/03/11 01:40:43;;;;;;;1.13;0.80;;;;;;;;;;5067343;28;20028;-48
2023/03/11 01:43:28;;;;;;;1.20;0.93;;;;;;;;;;5066916;28;20025;-53
2023/03/11 01:45:53;;;;;;;1.13;0.70;;;;;;;;;;5066584;28;20373;-51
2023/03/11 01:48:18;;;;;;;1.58;0.60;;;;;;;;;;5066801;28;20028;-50
2023/03/11 01:50:45;;;;;;;1.23;0.73;;;;;;;;;;5066930;28;20036;-49
2023/03/11 01:53:14;;;;;;;0.60;0.60;;;;;;;;;;5066923;28;20027;-49
2023/03/11 01:55:39;;;;;;;0.68;0.60;;;;;;;;;;5066437;28;20058;-52
2023/03/11 01:58:07;;;;;;;0.85;0.68;;;;;;;;;;5066443;28;20032;-49
2023/03/11 02:00:32;;;;;;;1.00;0.75;;;;;;;;;;5066445;28;20025;-51
2023/03/11 02:03:00;;;;;;;0.90;0.60;;;;;;;;;;5066540;28;20096;-50
2023/03/11 02:05:25;;;;;;;1.85;0.85;;;;;;;;;;5066627;28;20568;-50
2023/03/11 02:07:52;;;;;;;1.08;0.50;;;;;;;;;;5066533;28;20108;-48
2023/03/11 02:10:18;;;;;;;1.85;0.65;;;;;;;;;;5098163;28;20043;-46
2023/03/11 02:12:44;;;;;;;1.30;0.77;;;;;;;;;;5066760;28;20020;-52
2023/03/11 02:15:10;;;;;;;0.88;0.60;;;;;;;;;;5066313;28;20028;-52
2023/03/11 02:17:37;;;;;;;2.15;0.80;;;;;;;;;;5066012;28;20025;-51
2023/03/11 02:20:07;;;;;;;0.90;0.68;;;;;;;;;;5065974;28;20024;-50
2023/03/11 02:22:33;;;;;;;0.65;0.65;;;;;;;;;;5066353;28;20013;-48
2023/03/11 02:25:08;;;;;;;2.92;0.73;;;;;;;;;;5083148;28;20035;-51
2023/03/11 02:27:36;;;;;;;0.60;0.60;;;;;;;;;;5083398;28;20039;-51
2023/03/11 02:30:02;;;;;;;0.70;0.47;;;;;;;;;;5083416;28;20028;-52
2023/03/11 02:32:27;;;;;;;0.50;0.50;;;;;;;;;;5083607;28;20028;-49
2023/03/11 02:34:52;;;;;;;1.02;0.88;;;;;;;;;;5049315;28;20043;-51
2023/03/11 02:37:18;;;;;;;1.35;0.77;;;;;;;;;;5083121;28;20122;-51
2023/03/11 02:39:44;;;;;;;4.13;0.90;;;;;;;;;;5083357;28;20031;-51
2023/03/11 02:42:16;;;;;;;2.35;0.75;;;;;;;;;;5083127;28;20113;-49
2023/03/11 02:44:42;;;;;;;3.95;0.60;;;;;;;;;;5082807;28;20076;-49
2023/03/11 02:47:08;;;;;;;1.00;0.80;;;;;;;;;;5082885;28;20464;-50
2023/03/11 02:49:34;;;;;;;3.00;0.77;;;;;;;;;;5083189;28;20528;-50
2023/03/11 02:52:00;;;;;;;2.65;0.70;;;;;;;;;;5083013;28;20081;-54
2023/03/11 02:54:25;;;;;;;1.45;0.82;;;;;;;;;;5082729;28;20110;-50
2023/03/11 02:56:50;;;;;;;0.93;0.68;;;;;;;;;;5068459;28;20048;-51
2023/03/11 02:59:16;;;;;;;2.20;0.70;;;;;;;;;;5065557;28;20016;-49
2023/03/11 03:01:41;;;;;;;3.33;0.77;;;;;;;;;;5065403;28;20048;-50
2023/03/11 03:04:06;;;;;;;3.58;0.68;;;;;;;;;;5065155;28;20385;-50
2023/03/11 03:06:31;;;;;;;1.63;0.68;;;;;;;;;;5065784;28;20204;-50
2023/03/11 03:08:57;;;;;;;2.85;0.80;;;;;;;;;;5065523;28;20055;-53
2023/03/11 03:11:22;;;;;;;1.15;0.70;;;;;;;;;;5065090;28;20035;-49
2023/03/11 03:13:47;;;;;;;0.68;0.60;;;;;;;;;;5065250;28;20107;-48
2023/03/11 03:16:13;;;;;;;1.23;0.70;;;;;;;;;;5063987;28;20024;-50
2023/03/11 03:18:38;;;;;;;1.15;0.70;;;;;;;;;;5064754;28;20104;-52
2023/03/11 03:21:04;;;;;;;1.05;0.65;;;;;;;;;;5065084;28;20032;-52
2023/03/11 03:23:33;;;;;;;0.50;0.50;;;;;;;;;;5065437;28;20013;-49
2023/03/11 03:25:59;;;;;;;1.95;0.70;;;;;;;;;;5063995;28;20024;-51
2023/03/11 03:28:24;;;;;;;0.70;0.70;;;;;;;;;;5065584;28;20066;-51
2023/03/11 03:30:49;;;;;;;1.77;0.85;;;;;;;;;;5065138;28;20028;-48
2023/03/11 03:33:15;;;;;;;5.47;0.88;;;;;;;;;;5064866;28;20051;-53
2023/03/11 03:35:41;;;;;;;3.35;0.82;;;;;;;;;;5064680;28;20100;-52
2023/03/11 03:38:07;;;;;;;5.15;0.85;;;;;;;;;;5064738;28;20040;-52
2023/03/11 03:40:32;;;;;;;7.57;1.10;;;;;;;;;;5064993;28;20021;-49
2023/03/11 03:42:57;;;;;;;1.45;0.70;;;;;;;;;;5064806;28;20097;-50
2023/03/11 03:45:23;;;;;;;3.03;1.10;;;;;;;;;;5064647;28;20053;-53
2023/03/11 03:47:48;;;;;;;1.48;0.70;;;;;;;;;;5064481;28;20033;-48
2023/03/11 03:50:13;;;;;;;2.78;0.93;;;;;;;;;;5064302;28;20060;-49
2023/03/11 03:52:39;;;;;;;2.53;1.00;;;;;;;;;;5064479;28;20019;-50
2023/03/11 03:55:04;;;;;;;0.80;0.55;;;;;;;;;;5064690;28;20024;-48
2023/03/11 03:57:30;;;;;;;2.30;0.80;;;;;;;;;;5064496;28;20040;-52
2023/03/11 03:59:55;;;;;;;2.40;1.00;;;;;;;;;;5064381;28;20107;-52
2023/03/11 04:02:21;;;;;;;1.50;1.00;;;;;;;;;;5064639;28;20028;-52
2023/03/11 04:04:46;;;;;;;1.52;1.10;;;;;;;;;;5095875;28;20513;-46
2023/03/11 04:07:12;;;;;;;1.20;0.70;;;;;;;;;;5065009;28;20033;-48
2023/03/11 04:09:38;;;;;;;2.05;0.73;;;;;;;;;;5064693;28;20515;-52
2023/03/11 04:12:04;;;;;;;2.60;0.75;;;;;;;;;;5064656;28;20047;-48
2023/03/11 04:14:29;;;;;;;0.93;0.77;;;;;;;;;;5061935;28;20059;-52
2023/03/11 04:16:54;;;;;;;3.30;0.63;;;;;;;;;;5064333;28;20067;-52
2023/03/11 04:19:19;;;;;;;0.95;0.60;;;;;;;;;;5063807;28;20025;-50
2023/03/11 04:21:45;;;;;;;5.25;0.70;;;;;;;;;;5064154;28;20108;-50
2023/03/11 04:24:10;;;;;;;0.95;0.65;;;;;;;;;;5064442;28;20433;-48
2023/03/11 04:26:35;;;;;;;5.40;1.05;;;;;;;;;;5078850;28;20039;-48
2023/03/11 04:29:01;;;;;;;3.40;0.75;;;;;;;;;;5064439;28;20024;-50
2023/03/11 04:31:26;;;;;;;2.50;0.95;;;;;;;;;;5064282;28;20032;-50
2023/03/11 04:33:52;;;;;;;1.55;0.68;;;;;;;;;;5045190;28;20558;-51
2023/03/11 04:36:17;;;;;;;18.95;1.58;;;;;;;;;;5064483;28;20021;-51
2023/03/11 04:38:42;;;;;;;0.75;0.63;;;;;;;;;;5064342;28;20393;-49
2023/03/11 04:41:08;;;;;;;4.35;0.70;;;;;;;;;;5063871;28;20442;-50
2023/03/11 04:43:33;;;;;;;2.95;0.88;;;;;;;;;;5064315;28;20043;-51
2023/03/11 04:45:58;;;;;;;2.30;0.60;;;;;;;;;;5063929;28;20044;-48
2023/03/11 04:48:25;;;;;;;5.53;0.80;;;;;;;;;;5063935;28;20067;-53
2023/03/11 04:50:51;;;;;;;0.50;0.50;;;;;;;;;;5063949;28;20021;-51
2023/03/11 04:53:16;;;;;;;1.30;0.68;;;;;;;;;;5063711;28;20043;-50
2023/03/11 04:55:41;;;;;;;4.95;0.70;;;;;;;;;;5064139;28;20052;-54
2023/03/11 04:58:07;;;;;;;1.95;0.85;;;;;;;;;;5064272;28;20469;-51
2023/03/11 05:00:32;;;;;;;5.45;0.90;;;;;;;;;;5063913;28;20515;-49
2023/03/11 05:02:57;;;;;;;3.95;0.80;;;;;;;;;;5063771;28;20082;-52
2023/03/11 05:05:23;;;;;;;1.95;0.70;;;;;;;;;;5064289;28;20025;-53
2023/03/11 05:07:48;;;;;;;5.55;0.85;;;;;;;;;;5067307;28;20107;-48
2023/03/11 05:10:14;;;;;;;9.18;0.82;;;;;;;;;;5067527;28;20092;-52
2023/03/11 05:12:39;;;;;;;4.53;0.77;;;;;;;;;;5067653;28;20017;-51
2023/03/11 05:15:04;;;;;;;4.95;0.88;;;;;;;;;;5067065;28;20021;-49
2023/03/11 05:17:30;;;;;;;3.90;0.73;;;;;;;;;;5067108;28;20020;-52
2023/03/11 05:19:56;;;;;;;3.72;0.70;;;;;;;;;;5067007;28;20513;-48
2023/03/11 05:22:21;;;;;;;0.73;0.63;;;;;;;;;;5067157;28;20826;-51
2023/03/11 05:24:47;;;;;;;2.78;0.65;;;;;;;;;;5067143;28;20393;-51
2023/03/11 05:27:12;;;;;;;4.68;0.60;;;;;;;;;;5067200;28;20028;-50
2023/03/11 05:29:38;;;;;;;3.58;0.80;;;;;;;;;;5067187;28;20024;-52
2023/03/11 05:32:03;;;;;;;11.60;1.00;;;;;;;;;;5067082;28;20464;-49
2023/03/11 05:34:29;;;;;;;2.22;0.75;;;;;;;;;;5064317;28;20025;-48
2023/03/11 05:36:54;;;;;;;2.75;0.70;;;;;;;;;;5098068;28;20043;-49
2023/03/11 05:39:20;;;;;;;12.90;1.08;;;;;;;;;;5066808;28;20521;-50
2023/03/11 05:41:45;;;;;;;1.58;0.80;;;;;;;;;;5066886;28;20027;-53
2023/03/11 05:44:10;;;;;;;2.58;0.90;;;;;;;;;;5066457;28;20047;-52
2023/03/11 05:46:35;;;;;;;2.13;0.85;;;;;;;;;;5067007;28;20028;-50
2023/03/11 05:49:01;;;;;;;1.95;0.80;;;;;;;;;;5067040;28;20033;-51
2023/03/11 05:51:26;;;;;;;7.75;0.68;;;;;;;;;;5066494;28;20078;-49
2023/03/11 05:53:51;;;;;;;8.88;1.20;;;;;;;;;;5081019;28;20025;-48
2023/03/11 05:56:18;;;;;;;2.00;0.75;;;;;;;;;;5066531;28;20037;-52
2023/03/11 05:58:44;;;;;;;13.93;3.50;;;;;;;;;;5066925;28;20020;-51
2023/03/11 06:01:13;;;;;;;14.32;2.00;;;;;;;;;;5066827;28;20028;-50
2023/03/11 06:03:39;;;;;;;16.80;1.60;;;;;;;;;;5066920;28;20016;-51
2023/03/11 06:06:06;;;;;;;10.82;1.00;;;;;;;;;;5066935;28;20371;-52
2023/03/11 06:08:33;;;;;;;17.38;1.13;;;;;;;;;;5066862;28;20275;-50
2023/03/11 06:11:17;;;;;;;14.32;1.20;;;;;;;;;;5065026;28;20475;-50
2023/03/11 06:13:42;;;;;;;4.18;0.65;;;;;;;;;;5066431;28;20036;-52
2023/03/11 06:16:07;;;;;;;5.22;0.60;;;;;;;;;;5066312;28;20462;-51
2023/03/11 06:18:33;;;;;;;14.95;1.00;;;;;;;;;;5066410;28;20099;-49
2023/03/11 06:20:58;;;;;;;16.13;1.10;;;;;;;;;;5066161;28;20111;-48
2023/03/11 06:23:24;;;;;;;27.27;2.90;;;;;;;;;;5066319;28;20541;-51
2023/03/11 06:26:00;;;;;;;6.43;1.25;;;;;;;;;;5066351;28;20366;-52
2023/03/11 06:28:26;;;;;;;6.05;1.02;;;;;;;;;;5065687;28;20028;-52
2023/03/11 06:30:51;;;;;;;10.77;1.15;;;;;;;;;;5066134;28;20028;-52
2023/03/11 06:33:16;;;;;;;6.72;0.98;;;;;;;;;;5065807;28;20031;-52
2023/03/11 06:35:42;;;;;;;4.35;0.77;;;;;;;;;;5066052;28;20020;-51
2023/03/11 06:38:07;;;;;;;12.38;1.17;;;;;;;;;;5065867;28;20040;-54
2023/03/11 06:40:32;;;;;;;8.00;0.90;;;;;;;;;;5065910;28;20031;-51
2023/03/11 06:42:57;;;;;;;2.92;0.77;;;;;;;;;;5065746;28;20493;-51
2023/03/11 06:45:23;;;;;;;4.43;1.13;;;;;;;;;;5065870;28;20052;-51
2023/03/11 06:47:48;;;;;;;17.02;1.60;;;;;;;;;;5065769;28;20066;-47
2023/03/11 06:50:13;;;;;;;3.85;1.00;;;;;;;;;;5080025;28;20139;-49
2023/03/11 06:52:39;;;;;;;6.20;0.85;;;;;;;;;;5065477;28;20116;-51
2023/03/11 06:55:04;;;;;;;2.10;0.88;;;;;;;;;;5065281;28;20048;-49
2023/03/11 06:57:30;;;;;;;11.75;1.40;;;;;;;;;;5065522;28;20033;-51
2023/03/11 06:59:55;;;;;;;6.28;1.08;;;;;;;;;;5065582;28;20013;-51
2023/03/11 07:02:21;;;;;;;3.08;1.08;;;;;;;;;;5065479;28;20048;-49
2023/03/11 07:04:49;;;;;;;2.55;1.02;;;;;;;;;;5065404;28;20386;-54
2023/03/11 07:07:14;;;;;;;2.67;1.02;;;;;;;;;;5065500;28;20037;-50
2023/03/11 07:09:40;;;;;;;4.05;1.45;;;;;;;;;;5065370;28;20156;-53
2023/03/11 07:12:05;;;;;;;4.25;1.00;;;;;;;;;;5065348;28;20035;-49
2023/03/11 07:14:30;;;;;;;2.70;1.00;;;;;;;;;;5065591;28;20028;-50
2023/03/11 07:16:55;;;;;;;5.45;1.25;;;;;;;;;;5062457;28;20337;-51
2023/03/11 07:19:21;;;;;;;1.27;1.05;;;;;;;;;;5064808;28;20035;-50
2023/03/11 07:21:46;;;;;;;5.15;1.20;;;;;;;;;;5065411;28;20414;-48
2023/03/11 07:24:13;;;;;;;3.65;1.10;;;;;;;;;;5065146;28;20024;-50
2023/03/11 07:26:38;;;;;;;3.67;1.10;;;;;;;;;;5063626;28;20139;-52
2023/03/11 07:29:04;;;;;;;0.98;0.80;;;;;;;;;;5064436;28;20111;-51
2023/03/11 07:31:30;;;;;;;1.00;0.80;;;;;;;;;;5065212;28;20554;-52
2023/03/11 07:33:57;;;;;;;2.05;1.60;;;;;;;;;;5065064;28;20027;-51
2023/03/11 07:36:23;;;;;;;3.25;1.40;;;;;;;;;;5065105;28;20262;-51
2023/03/11 07:38:53;;;;;;;2.15;1.38;;;;;;;;;;5065151;28;20021;-49
2023/03/11 07:41:18;;;;;;;2.45;0.90;;;;;;;;;;5064566;28;20720;-51
2023/03/11 07:43:43;;;;;;;1.63;1.00;;;;;;;;;;5065248;28;20243;-50
2023/03/11 07:46:15;;;;;;;1.25;0.90;;;;;;;;;;5064965;28;20044;-48
2023/03/11 07:48:41;;;;;;;2.65;1.27;;;;;;;;;;5064836;28;20055;-48
2023/03/11 07:51:11;;;;;;;1.38;1.10;;;;;;;;;;5064927;28;20017;-50
2023/03/11 07:53:37;;;;;;;8.95;1.50;;;;;;;;;;5064834;28;20116;-49
2023/03/11 07:56:02;;;;;;;2.22;1.40;;;;;;;;;;5065347;28;20028;-53
2023/03/11 07:58:28;;;;;;;7.88;1.17;;;;;;;;;;5064810;28;20037;-51
2023/03/11 08:00:55;;;;;;;7.28;2.70;;;;;;;;;;5064807;28;20078;-53
2023/03/11 08:03:21;;;;;;;12.15;3.40;;;;;;;;;;5063411;28;20090;-50
2023/03/11 08:05:46;;;;;;;17.02;5.03;;;;;;;;;;5064339;28;20024;-50
2023/03/11 08:08:12;;;;;;;4.55;1.77;;;;;;;;;;5065268;28;20294;-53
2023/03/11 08:10:38;;;;;;;11.70;2.30;;;;;;;;;;5064597;28;20024;-49
2023/03/11 08:13:03;;;;;;;6.75;1.45;;;;;;;;;;5064719;28;20025;-51
2023/03/11 08:15:28;;;;;;;4.32;0.90;;;;;;;;;;5064555;28;20098;-52
2023/03/11 08:17:53;;;;;;;5.97;1.00;;;;;;;;;;5095782;28;20036;-52
2023/03/11 08:20:19;;;;;;;2.65;1.10;;;;;;;;;;5064577;28;20036;-51
2023/03/11 08:22:44;;;;;;;5.22;1.10;;;;;;;;;;5064901;28;20444;-50
2023/03/11 08:25:09;;;;;;;4.50;1.30;;;;;;;;;;5064252;28;20047;-50
2023/03/11 08:27:35;;;;;;;3.72;1.08;;;;;;;;;;5064309;28;20108;-50
2023/03/11 08:30:00;;;;;;;4.45;1.60;;;;;;;;;;5064637;28;20021;-53
2023/03/11 08:32:25;;;;;;;5.85;1.02;;;;;;;;;;5064429;28;20575;-54
2023/03/11 08:34:51;;;;;;;2.78;1.15;;;;;;;;;;5064817;28;20017;-52
2023/03/11 08:37:16;;;;;;;3.20;0.88;;;;;;;;;;5064291;28;20036;-50
2023/03/11 08:39:41;;;;;;;6.88;1.30;;;;;;;;;;5065350;28;20041;-50
2023/03/11 08:42:06;;;;;;;3.63;1.52;;;;;;;;;;5065476;28;20122;-54
2023/03/11 08:44:32;;;;;;;8.35;1.40;;;;;;;;;;5068007;28;20052;-53
2023/03/11 08:46:57;;;;;;;6.85;1.20;;;;;;;;;;5068215;28;20098;-49
2023/03/11 08:49:23;;;;;;;4.22;1.02;;;;;;;;;;5068088;28;20446;-49
2023/03/11 08:51:48;;;;;;;2.95;0.70;;;;;;;;;;5066421;28;20028;-50
2023/03/11 08:54:14;;;;;;;1.67;0.82;;;;;;;;;;5068050;28;20020;-51
2023/03/11 08:56:39;;;;;;;4.60;0.93;;;;;;;;;;5068098;28;20025;-51
2023/03/11 08:59:04;;;;;;;1.05;0.80;;;;;;;;;;5067772;28;20117;-52
2023/03/11 09:01:30;;;;;;;1.90;0.85;;;;;;;;;;5067697;28;20020;-53
2023/03/11 09:03:55;;;;;;;2.15;1.73;;;;;;;;;;5067600;28;20016;-50
2023/03/11 09:06:20;;;;;;;5.90;1.00;;;;;;;;;;5067952;28;20027;-50
2023/03/11 09:08:46;;;;;;;4.40;1.10;;;;;;;;;;5067824;28;20483;-53
2023/03/11 09:11:12;;;;;;;4.80;0.90;;;;;;;;;;5067555;28;20381;-51
2023/03/11 09:13:39;;;;;;;1.45;1.13;;;;;;;;;;5067337;28;20102;-50
2023/03/11 09:16:05;;;;;;;4.15;1.10;;;;;;;;;;5067362;28;20056;-51
2023/03/11 09:18:30;;;;;;;1.30;0.80;;;;;;;;;;5067166;28;20078;-51
2023/03/11 09:20:57;;;;;;;4.60;1.13;;;;;;;;;;5067303;28;20025;-52
2023/03/11 09:23:23;;;;;;;1.35;1.02;;;;;;;;;;5067584;28;20016;-49
2023/03/11 09:25:48;;;;;;;1.50;1.02;;;;;;;;;;5067547;28;20131;-54
2023/03/11 09:28:13;;;;;;;4.82;1.17;;;;;;;;;;5067283;28;20464;-51
2023/03/11 09:30:39;;;;;;;4.00;1.23;;;;;;;;;;5064835;28;20033;-52
2023/03/11 09:33:04;;;;;;;3.83;1.38;;;;;;;;;;5067265;28;20407;-51
2023/03/11 09:35:29;;;;;;;2.78;1.10;;;;;;;;;;5065762;28;20452;-50
2023/03/11 09:37:54;;;;;;;1.00;0.90;;;;;;;;;;5098527;28;20036;-51
2023/03/11 09:40:21;;;;;;;1.20;0.90;;;;;;;;;;5067418;28;20024;-50
2023/03/11 09:43:05;;;;;;;3.60;1.05;;;;;;;;;;5067073;28;20063;-51
2023/03/11 09:45:33;;;;;;;4.38;1.23;;;;;;;;;;5066937;28;20566;-52
2023/03/11 09:47:58;;;;;;;6.35;0.73;;;;;;;;;;5066988;28;20116;-50
2023/03/11 09:50:24;;;;;;;4.82;0.80;;;;;;;;;;5067132;28;20082;-55
2023/03/11 09:52:59;;;;;;;3.55;0.80;;;;;;;;;;5066528;28;20021;-52
2023/03/11 09:55:36;;;;;;;10.52;1.83;;;;;;;;;;5066072;28;20763;-55
2023/03/11 09:58:06;;;;;;;2.47;1.27;;;;;;;;;;5067214;28;20055;-51
2023/03/11 10:00:31;;;;;;;;;;;;;;;;;;5067332;28;20395;-53
2023/03/11 10:02:57;;;;;;;3.50;1.00;;;;;;;;;;5066609;28;19908;-54
2023/03/11 10:05:25;;;;;;;2.88;1.10;;;;;;;;;;5066598;28;20082;-51
2023/03/11 10:08:10;;;;;;;3.40;1.08;;;;;;;;;;5066503;28;20166;-52
2023/03/11 10:10:39;;;;;;;1.23;0.82;;;;;;;;;;5066940;28;20357;-49
2023/03/11 10:13:10;;;;;;;7.57;1.10;;;;;;;;;;5066398;28;20349;-53
2023/03/11 10:15:38;;;;;;;3.97;1.67;;;;;;;;;;5066413;28;20111;-51
2023/03/11 10:18:06;;;;;;;3.00;0.85;;;;;;;;;;5064811;28;20029;-49
2023/03/11 10:20:50;;;;;;;2.97;0.90;;;;;;;;;;5066191;28;20124;-53
2023/03/11 10:23:34;;;;;;;2.67;1.05;;;;;;;;;;5066469;28;20056;-55
2023/03/11 10:26:04;;;;;;;1.13;0.80;;;;;;;;;;5066982;28;20024;-49
2023/03/11 10:28:32;;;;;;;9.43;1.25;;;;;;;;;;5066495;28;20029;-55
2023/03/11 10:31:06;;;;;;;8.35;1.17;;;;;;;;;;5066313;28;20387;-48
2023/03/11 10:33:36;;;;;;;13.18;1.20;;;;;;;;;;5066236;28;20055;-49
2023/03/11 10:36:06;;;;;;;8.07;1.23;;;;;;;;;;5066188;28;20024;-54
2023/03/11 10:38:45;;;;;;;8.13;1.10;;;;;;;;;;5066277;28;20502;-55
2023/03/11 10:41:30;;;;;;;12.27;1.33;;;;;;;;;;5066101;28;20047;-51
2023/03/11 10:44:00;;;;;;;17.58;1.75;;;;;;;;;;5065770;28;20025;-54
2023/03/11 10:46:26;;;;;;;7.65;1.25;;;;;;;;;;5065684;28;20048;-52
2023/03/11 10:48:52;;;;;;;4.50;1.00;;;;;;;;;;5065686;28;20025;-52
2023/03/11 10:51:21;;;;;;;12.43;1.05;;;;;;;;;;5066182;28;20021;-52
2023/03/11 10:53:51;;;;;;;20.38;2.75;;;;;;;;;;5064602;28;20043;-54
2023/03/11 10:56:24;;;;;;;6.57;0.93;;;;;;;;;;5065952;28;20028;-53
2023/03/11 10:58:49;;;;;;;5.65;0.90;;;;;;;;;;5065444;28;20375;-54
2023/03/11 11:01:15;;;;;;;8.68;1.30;;;;;;;;;;5065734;28;20025;-52
2023/03/11 11:03:45;;;;;;;13.32;0.98;;;;;;;;;;5065204;28;20886;-53
2023/03/11 11:06:30;;;;;;;13.93;1.92;;;;;;;;;;5065519;28;20495;-50
2023/03/11 11:09:18;;;;;;;12.50;1.08;;;;;;;;;;5065768;28;20025;-54
2023/03/11 11:11:59;;;;;;;7.07;0.93;;;;;;;;;;5063714;28;20430;-53
2023/03/11 11:14:24;;;;;;;8.13;1.70;;;;;;;;;;5065457;28;20031;-53
2023/03/11 11:16:50;;;;;;;15.55;1.00;;;;;;;;;;5063951;28;20016;-55
2023/03/11 11:19:17;;;;;;;11.05;2.30;;;;;;;;;;5065000;28;20051;-55
2023/03/11 11:21:44;;;;;;;10.18;0.65;;;;;;;;;;5065081;28;20025;-53
2023/03/11 11:24:26;;;;;;;12.38;0.90;;;;;;;;;;5065331;28;20027;-53
2023/03/11 11:27:10;;;;;;;18.02;1.13;;;;;;;;;;5065618;28;20029;-54
2023/03/11 11:29:35;;;;;;;11.15;1.00;;;;;;;;;;5065391;28;20131;-52
2023/03/11 11:32:16;;;;;;;30.45;1.38;;;;;;;;;;5066922;28;20041;-49
2023/03/11 11:34:41;;;;;;;8.20;0.93;;;;;;;;;;5065618;28;20032;-51
2023/03/11 11:37:10;;;;;;;7.38;1.10;;;;;;;;;;5065250;28;20039;-51
2023/03/11 11:39:43;;;;;;;60.85;3.63;;;;;;;;;;5065753;28;20034;-49
2023/03/11 11:42:10;;;;;;;112.35;7.65;;;;;;;;;;5065074;28;20112;-50
2023/03/11 11:44:35;;;;;;;71.38;3.13;;;;;;;;;;5065408;28;20132;-51
2023/03/11 11:47:05;;;;;;;20.50;1.58;;;;;;;;;;5065096;28;20583;-52
2023/03/11 11:49:33;;;;;;;15.60;1.27;;;;;;;;;;5065005;28;20436;-48
2023/03/11 11:52:01;;;;;;;10.30;1.73;;;;;;;;;;5065218;28;20032;-51
2023/03/11 11:54:34;;;;;;;17.57;1.10;;;;;;;;;;5065521;28;20016;-50
2023/03/11 11:57:00;;;;;;;12.38;1.10;;;;;;;;;;5065309;28;20025;-53
2023/03/11 11:59:29;;;;;;;27.23;1.50;;;;;;;;;;5065215;28;20055;-53
2023/03/11 12:02:13;;;;;;;7.80;1.85;;;;;;;;;;5064936;28;20357;-53
2023/03/11 12:04:45;;;;;;;14.68;1.23;;;;;;;;;;5065657;28;20461;-53
2023/03/11 12:07:40;;;;;;;16.30;1.10;;;;;;;;;;5065606;28;20099;-54
2023/03/11 12:10:14;;;;;;;8.35;1.20;;;;;;;;;;5025311;28;20491;-52
2023/03/11 12:12:42;;;;;;;6.18;0.93;;;;;;;;;;5042305;28;20029;-52
2023/03/11 12:15:10;;;;;;;7.03;0.80;;;;;;;;;;5044184;28;20033;-52
2023/03/11 12:17:39;;;;;;;14.10;1.20;;;;;;;;;;5046538;28;20024;-51
2023/03/11 12:20:04;;;;;;;8.30;1.05;;;;;;;;;;5046305;28;20036;-53
2023/03/11 12:22:39;;;;;;;9.32;1.40;;;;;;;;;;5046578;28;20519;-50
2023/03/11 12:25:18;;;;;;;9.38;1.15;;;;;;;;;;5046377;28;20021;-51
2023/03/11 12:27:52;;;;;;;18.25;2.58;;;;;;;;;;5046505;28;20033;-53
2023/03/11 12:30:35;;;;;;;13.50;1.55;;;;;;;;;;5046615;28;20025;-49
2023/03/11 12:33:03;;;;;;;28.48;1.67;;;;;;;;;;5046335;28;20056;-54
2023/03/11 12:35:30;;;;;;;9.05;1.17;;;;;;;;;;5047580;28;20342;-52
2023/03/11 12:37:55;;;;;;;19.67;1.80;;;;;;;;;;5046004;28;20056;-50
2023/03/11 12:40:39;;;;;;;11.95;0.95;;;;;;;;;;5046122;28;20072;-52
2023/03/11 12:43:22;;;;;;;9.10;1.23;;;;;;;;;;5046008;28;20021;-51
2023/03/11 12:45:51;;;;;;;19.95;1.77;;;;;;;;;;5050293;28;20267;-50
2023/03/11 12:48:16;;;;;;;;;;;;;;;;;;5069554;28;20361;-51
2023/03/11 12:50:42;;;;;;;11.13;1.40;;;;;;;;;;5069023;28;19954;-49
2023/03/11 12:53:14;;;;;;;15.50;1.08;;;;;;;;;;5069267;28;20416;-52
2023/03/11 12:56:00;;;;;;;14.63;1.27;;;;;;;;;;5082395;28;20047;-51
2023/03/11 12:58:33;;;;;;;8.48;1.20;;;;;;;;;;5068687;28;20027;-51
2023/03/11 13:01:04;;;;;;;17.00;2.75;;;;;;;;;;5068572;28;20396;-49
2023/03/11 13:03:44;;;;;;;10.88;1.20;;;;;;;;;;5066897;28;20365;-48
2023/03/11 13:06:09;;;;;;;20.92;1.23;;;;;;;;;;5068622;28;20099;-54
2023/03/11 13:08:42;;;;;;;21.35;1.45;;;;;;;;;;5068149;28;20116;-53
2023/03/11 13:11:25;;;;;;;25.58;1.40;;;;;;;;;;5085395;28;20082;-50
2023/03/11 13:13:51;;;;;;;10.25;1.05;;;;;;;;;;5085815;28;20430;-54
2023/03/11 13:16:19;;;;;;;12.75;1.58;;;;;;;;;;5085545;28;20039;-55
2023/03/11 13:18:46;;;;;;;16.17;1.43;;;;;;;;;;5085708;28;20034;-49
2023/03/11 13:21:26;;;;;;;4.13;1.40;;;;;;;;;;5085607;28;20379;-53
2023/03/11 13:24:12;;;;;;;15.93;1.77;;;;;;;;;;5085747;28;20071;-54
2023/03/11 13:26:42;;;;;;;16.17;1.70;;;;;;;;;;5084325;28;20032;-55
2023/03/11 13:29:26;;;;;;;26.55;2.97;;;;;;;;;;5085196;28;20395;-54
2023/03/11 13:31:54;;;;;;;24.73;1.70;;;;;;;;;;5085524;28;20036;-53
2023/03/11 13:34:39;;;;;;;8.18;1.15;;;;;;;;;;5085406;28;20020;-55
2023/03/11 13:37:15;;;;;;;16.08;1.15;;;;;;;;;;5086975;28;20531;-52
2023/03/11 13:39:53;;;;;;;3.95;1.02;;;;;;;;;;5085229;28;20506;-52
2023/03/11 13:42:31;;;;;;;9.73;1.50;;;;;;;;;;5075098;28;20029;-53
2023/03/11 13:44:57;;;;;;;14.98;1.30;;;;;;;;;;5098757;28;20049;-51
2023/03/11 13:47:23;;;;;;;9.20;0.93;;;;;;;;;;5067519;28;20035;-52
2023/03/11 13:49:49;;;;;;;25.42;1.40;;;;;;;;;;5067182;28;20028;-53
2023/03/11 13:52:23;;;;;;;4.68;1.27;;;;;;;;;;5067478;28;20024;-53
2023/03/11 13:54:52;;;;;;;5.78;0.80;;;;;;;;;;5067437;28;20028;-51
2023/03/11 13:57:26;;;;;;;11.35;1.27;;;;;;;;;;5067215;28;20035;-50
2023/03/11 13:59:53;;;;;;;4.80;1.58;;;;;;;;;;5067617;28;20029;-50
2023/03/11 14:02:20;;;;;;;5.05;1.25;;;;;;;;;;5067248;28;20452;-49
2023/03/11 14:04:49;;;;;;;4.47;0.85;;;;;;;;;;5067378;28;20016;-51
2023/03/11 14:07:26;;;;;;;10.07;1.73;;;;;;;;;;5081687;28;20029;-51
2023/03/11 14:10:05;;;;;;;12.50;1.20;;;;;;;;;;5067147;28;20032;-52
2023/03/11 14:12:31;;;;;;;8.38;1.60;;;;;;;;;;5066990;28;20035;-50
2023/03/11 14:15:19;;;;;;;12.27;1.45;;;;;;;;;;5067059;28;20032;-52
2023/03/11 14:17:45;;;;;;;19.10;2.88;;;;;;;;;;5010499;28;20044;-53
2023/03/11 14:20:15;;;;;;;44.58;2.67;;;;;;;;;;5043627;28;20029;-52
2023/03/11 14:22:43;;;;;;;15.68;1.10;;;;;;;;;;5044279;28;20029;-53
2023/03/11 14:25:09;;;;;;;4.65;0.85;;;;;;;;;;5044281;28;20021;-51
2023/03/11 14:27:36;;;;;;;18.67;1.73;;;;;;;;;;5044044;28;20060;-50
2023/03/11 14:30:02;;;;;;;19.98;1.55;;;;;;;;;;5043770;28;20087;-52
2023/03/11 14:32:29;;;;;;;10.57;2.00;;;;;;;;;;5043945;28;20455;-50
2023/03/11 14:34:54;;;;;;;39.15;2.22;;;;;;;;;;5043835;28;20040;-52
2023/03/11 14:37:23;;;;;;;5.07;1.25;;;;;;;;;;5043569;28;20396;-50
2023/03/11 14:39:48;;;;;;;9.18;1.27;;;;;;;;;;5043961;28;20033;-52
2023/03/11 14:42:33;;;;;;;4.35;1.10;;;;;;;;;;5043559;28;20033;-49
2023/03/11 14:45:14;;;;;;;9.75;1.45;;;;;;;;;;5042740;28;20439;-52